createdAt,value
2023-08-14T00:02:25.223Z,1018.9
2023-08-14T00:08:11.427Z,1018.9
2023-08-14T00:19:31.072Z,1019.1
2023-08-14T00:24:48.340Z,1019
2023-08-14T00:30:34.723Z,1018.9
2023-08-14T00:36:01.540Z,1018.7
2023-08-14T00:41:33.808Z,1018.8
2023-08-14T00:47:19.821Z,1018.6
2023-08-14T00:53:00.933Z,1018.5
2023-08-14T01:03:58.463Z,1018.7
2023-08-14T01:09:31.428Z,1018.7
2023-08-14T01:15:14.959Z,1018.7
2023-08-14T01:20:51.860Z,1018.8
2023-08-14T01:26:10.264Z,1018.8
2023-08-14T01:31:51.195Z,1018.9
2023-08-14T01:37:28.107Z,1018.9
2023-08-14T01:43:09.766Z,1018.9
2023-08-14T01:48:39.644Z,1018.9
2023-08-14T01:53:57.017Z,1018.9
2023-08-14T01:59:42.285Z,1018.8
2023-08-14T02:05:14.793Z,1018.9
2023-08-14T02:10:36.559Z,1018.9
2023-08-14T02:16:28.762Z,1018.8
2023-08-14T02:22:03.730Z,1018.8
2023-08-14T02:27:40.609Z,1018.8
2023-08-14T02:33:17.132Z,1018.8
2023-08-14T02:38:26.363Z,1018.6
2023-08-14T02:44:16.793Z,1018.7
2023-08-14T02:49:57.511Z,1018.6
2023-08-14T02:55:08.544Z,1018.6
2023-08-14T03:00:45.146Z,1018.5
2023-08-14T03:06:38.227Z,1018.4
2023-08-14T03:11:54.888Z,1018.4
2023-08-14T03:17:32.740Z,1018.3
2023-08-14T03:23:13.962Z,1018.3
2023-08-14T03:28:46.338Z,1018.3
2023-08-14T03:34:30.735Z,1018.3
2023-08-14T03:39:47.772Z,1018.3
2023-08-14T03:45:35.055Z,1018.5
2023-08-14T03:51:07.386Z,1018.4
2023-08-14T03:56:41.523Z,1018.5
2023-08-14T04:02:01.114Z,1018.5
2023-08-14T04:07:38.204Z,1018.6
2023-08-14T04:13:15.623Z,1018.7
2023-08-14T04:24:39.660Z,1018.7
2023-08-14T04:29:53.820Z,1018.7
2023-08-14T04:35:33.099Z,1018.5
2023-08-14T04:41:11.539Z,1018.6
2023-08-14T04:46:45.247Z,1018.5
2023-08-14T04:52:13.123Z,1018.6
2023-08-14T04:57:50.854Z,1018.6
2023-08-14T05:14:28.145Z,1018.4
2023-08-14T05:20:04.597Z,1018.5
2023-08-14T05:25:54.176Z,1018.3
2023-08-14T05:31:04.574Z,1018.2
2023-08-14T05:37:00.411Z,1018
2023-08-14T05:42:37.018Z,1017.7
2023-08-14T05:48:05.322Z,1017.5
2023-08-14T05:53:21.630Z,1017.7
2023-08-14T06:04:54.983Z,1017.1
2023-08-14T06:10:12.419Z,1017
2023-08-14T06:16:04.719Z,1017.5
2023-08-14T06:21:30.540Z,1017.5
2023-08-14T06:27:02.102Z,1017.5
2023-08-14T06:32:52.580Z,1017.3
2023-08-14T06:38:09.102Z,1017.1
2023-08-14T06:43:41.090Z,1017.1
2023-08-14T06:49:38.155Z,1017.3
2023-08-14T06:54:53.433Z,1017.1
2023-08-14T07:00:27.852Z,1017.2
2023-08-14T07:06:18.438Z,1017
2023-08-14T07:12:01.640Z,1017.4
2023-08-14T07:17:10.315Z,1017.4
2023-08-14T07:23:03.158Z,1016.8
2023-08-14T07:34:20.818Z,1016.9
2023-08-14T07:39:36.822Z,1016.8
2023-08-14T07:45:12.093Z,1016.8
2023-08-14T07:50:59.789Z,1016.9
2023-08-14T07:56:50.265Z,1017
2023-08-14T08:02:14.844Z,1016.7
2023-08-14T08:07:38.361Z,1016.7
2023-08-14T08:18:57.022Z,1016.6
2023-08-14T08:24:47.074Z,1016.9
2023-08-14T08:30:35.080Z,1016.8
2023-08-14T08:35:44.104Z,1016.4
2023-08-14T08:41:43.373Z,1016.6
2023-08-14T08:47:01.136Z,1016.7
2023-08-14T08:52:51.618Z,1017.2
2023-08-14T09:03:52.462Z,1017.8
2023-08-14T09:09:48.848Z,1017.8
2023-08-14T09:15:08.813Z,1017.8
2023-08-14T09:20:46.399Z,1017.7
2023-08-14T09:26:45.331Z,1017.4
2023-08-14T09:32:06.558Z,1017
2023-08-14T09:37:57.115Z,1017.3
2023-08-14T09:49:14.620Z,1017.4
2023-08-14T09:54:35.136Z,1017.4
2023-08-14T10:00:18.755Z,1017.4
2023-08-14T10:05:54.641Z,1017.3
2023-08-14T10:11:37.225Z,1017.2
2023-08-14T10:17:10.766Z,1017.3
2023-08-14T10:22:36.037Z,1017.4
2023-08-14T10:28:26.984Z,1017.2
2023-08-14T10:33:58.625Z,1017.1
2023-08-14T10:39:31.885Z,1017
2023-08-14T10:45:04.032Z,1016.8
2023-08-14T10:50:46.530Z,1016.2
2023-08-14T10:56:15.822Z,1016.2
2023-08-14T11:02:10.590Z,1015.9
2023-08-14T11:07:44.857Z,1015.9
2023-08-14T11:13:11.763Z,1015.8
2023-08-14T11:19:04.233Z,1015.4
2023-08-14T11:24:33.693Z,1015.6
2023-08-14T11:30:15.373Z,1015.5
2023-08-14T11:35:44.967Z,1015.2
2023-08-14T11:41:48.600Z,1015.1
2023-08-14T11:47:07.410Z,1015.2
2023-08-14T11:53:03.515Z,1015.2
2023-08-14T12:09:32.755Z,1015.2
2023-08-14T12:15:05.020Z,1015.2
2023-08-14T12:20:58.721Z,1015.3
2023-08-14T12:26:44.792Z,1015.3
2023-08-14T12:32:17.862Z,1015.4
2023-08-14T12:37:53.336Z,1015.2
2023-08-14T12:43:11.768Z,1015.1
2023-08-14T12:48:57.241Z,1015
2023-08-14T12:54:47.602Z,1014.9
2023-08-14T13:00:17.384Z,1014.6
2023-08-14T13:05:57.383Z,1014.4
2023-08-14T13:11:19.399Z,1014.4
2023-08-14T13:17:01.616Z,1014.4
2023-08-14T13:22:57.043Z,1014.3
2023-08-14T13:28:28.632Z,1014.2
2023-08-14T13:39:36.687Z,1014.3
2023-08-14T13:45:37.809Z,1014.2
2023-08-14T13:51:16.745Z,1014
2023-08-14T13:56:54.903Z,1013.9
2023-08-14T14:02:13.256Z,1013.8
2023-08-14T14:08:10.232Z,1013.9
2023-08-14T14:19:09.306Z,1013.5
2023-08-14T14:25:01.247Z,1013.6
2023-08-14T14:30:38.841Z,1013.4
2023-08-14T14:36:20.897Z,1013.1
2023-08-14T14:42:00.997Z,1013.1
2023-08-14T14:47:44.505Z,1013.1
2023-08-14T14:53:30.135Z,1012.9
2023-08-14T14:59:09.468Z,1013.1
2023-08-14T15:04:34.674Z,1013.1
2023-08-14T15:10:04.584Z,1012.9
2023-08-14T15:15:58.768Z,1013.1
2023-08-14T15:21:49.173Z,1013
2023-08-14T15:27:09.601Z,1012.9
2023-08-14T15:32:40.044Z,1012.9
2023-08-14T15:38:33.892Z,1012.9
2023-08-14T15:49:30.482Z,1012.6
2023-08-14T15:55:24.191Z,1012.6
2023-08-14T16:00:53.796Z,1012.6
2023-08-14T16:06:35.553Z,1012.7
2023-08-14T16:12:24.230Z,1012.7
2023-08-14T16:17:58.730Z,1012.6
2023-08-14T16:23:25.944Z,1012.8
2023-08-14T16:29:03.289Z,1012.7
2023-08-14T16:34:53.524Z,1012.8
2023-08-14T16:40:37.459Z,1012.9
2023-08-14T16:46:06.399Z,1012.8
2023-08-14T16:51:58.913Z,1012.9
2023-08-14T16:57:20.620Z,1012.8
2023-08-14T17:08:28.429Z,1012.9
2023-08-14T17:14:07.044Z,1013
2023-08-14T17:20:07.309Z,1013
2023-08-14T17:25:51.224Z,1012.9
2023-08-14T17:31:13.996Z,1012.9
2023-08-14T17:36:46.192Z,1012.9
2023-08-14T17:42:32.996Z,1013
2023-08-14T17:48:19.294Z,1013.1
2023-08-14T17:53:40.151Z,1013.1
2023-08-14T17:59:11.913Z,1013.2
2023-08-14T18:04:49.342Z,1013.2
2023-08-14T18:10:24.825Z,1013.3
2023-08-14T18:16:07.573Z,1013.4
2023-08-14T18:21:47.679Z,1013.5
2023-08-14T18:27:13.426Z,1013.7
2023-08-14T18:32:51.333Z,1013.7
2023-08-14T18:44:04.231Z,1013.9
2023-08-14T18:50:03.927Z,1014.4
2023-08-14T18:55:40.771Z,1014.6
2023-08-14T19:01:02.535Z,1014.8
2023-08-14T19:06:41.402Z,1014.6
2023-08-14T19:12:22.636Z,1014.7
2023-08-14T19:18:09.498Z,1014.9
2023-08-14T19:23:35.270Z,1015.2
2023-08-14T19:28:49.695Z,1015.5
2023-08-14T19:34:41.277Z,1015.8
2023-08-14T19:40:27.041Z,1015.6
2023-08-14T19:45:41.873Z,1015.5
2023-08-14T19:51:14.639Z,1015.7
2023-08-14T19:57:07.822Z,1015.6
2023-08-14T20:02:28.519Z,1015.4
2023-08-14T20:08:10.487Z,1015.6
2023-08-14T20:13:51.730Z,1015.6
2023-08-14T20:19:26.818Z,1015.7
2023-08-14T20:24:59.041Z,1015.8
2023-08-14T20:30:27.840Z,1015.8
2023-08-14T20:36:13.647Z,1015.9
2023-08-14T20:41:52.514Z,1016.1
2023-08-14T20:47:31.593Z,1016.5
2023-08-14T20:53:16.987Z,1016.3
2023-08-14T21:09:39.141Z,1016.6
2023-08-14T21:15:31.597Z,1016.6
2023-08-14T21:21:07.318Z,1016.7
2023-08-14T21:26:33.527Z,1016.5
2023-08-14T21:32:05.420Z,1016.8
2023-08-14T21:37:55.588Z,1016.9
2023-08-14T21:43:23.480Z,1016.7
2023-08-14T21:48:52.932Z,1016.8
2023-08-14T21:54:31.040Z,1017
2023-08-14T22:00:00.789Z,1016.9
2023-08-14T22:05:50.144Z,1016.9
2023-08-14T22:11:18.774Z,1017.2
2023-08-14T22:16:57.588Z,1017.5
2023-08-14T22:22:22.398Z,1017.3
2023-08-14T22:28:01.097Z,1017.4
2023-08-14T22:39:27.963Z,1017.6
2023-08-14T22:44:46.942Z,1017.6
2023-08-14T22:50:40.405Z,1017.6
2023-08-14T22:56:06.868Z,1017.3
2023-08-14T23:01:43.855Z,1017.5
2023-08-14T23:07:25.655Z,1017.4
2023-08-14T23:12:39.677Z,1017.6
2023-08-14T23:18:14.080Z,1017.7
2023-08-14T23:24:04.019Z,1017.8
2023-08-14T23:29:40.506Z,1018
2023-08-14T23:35:02.500Z,1018.1
2023-08-14T23:40:49.925Z,1017.9
2023-08-14T23:46:12.699Z,1017.7
2023-08-14T23:51:58.149Z,1017.9
2023-08-14T23:57:26.352Z,1018
